Time,TemperatureF,DewpointF,PressureIn,WindDirection,WindDirectionDegrees,WindSpeedMPH,WindSpeedGustMPH,Humidity,HourlyPrecipIn,Conditions,Clouds,dailyrainin,SolarRadiationWatts/m^2,SoftwareType,DateUTC
2013-06-03 00:04:00,49.1,48.3,28.88,NNE,30,1.1,1.1,97,0.00,RA,FEW,0.00,0.0,WeatherDisplay:10.37,2013-06-02 22:04:00,
2013-06-03 00:09:00,49.1,48.3,28.91,NNW,330,0.0,0.4,97,0.00,CLR,FEW,0.00,0.0,WeatherDisplay:10.37,2013-06-02 22:09:00,
2013-06-03 00:14:00,49.1,48.3,28.91,NNW,340,0.0,0.0,97,0.00,CLR,FEW,0.00,0.0,WeatherDisplay:10.37,2013-06-02 22:14:00,
2013-06-03 00:19:00,49.1,48.3,28.91,NNW,340,0.0,0.0,97,0.00,CLR,FEW,0.00,0.0,WeatherDisplay:10.37,2013-06-02 22:19:00,
2013-06-03 00:24:00,49.1,48.3,28.88,NE,35,2.3,2.3,97,0.00,CLR,FEW,0.00,0.0,WeatherDisplay:10.37,2013-06-02 22:24:00,
2013-06-03 00:29:00,49.3,48.5,28.88,North,0,3.5,3.8,97,0.00,CLR,FEW,0.00,0.0,WeatherDisplay:10.37,2013-06-02 22:29:00,
2013-06-03 00:34:00,49.3,48.5,28.88,North,5,3.5,3.5,97,0.00,CLR,FEW,0.00,0.0,WeatherDisplay:10.37,2013-06-02 22:34:00,
2013-06-03 00:39:00,49.3,48.5,28.88,NE,35,0.0,0.0,97,0.00,CLR,FEW,0.00,0.0,WeatherDisplay:10.37,2013-06-02 22:39:00,
2013-06-03 00:44:00,49.3,48.5,28.88,NE,35,0.0,0.0,97,0.00,CLR,FEW,0.00,0.0,WeatherDisplay:10.37,2013-06-02 22:44:00,
2013-06-03 00:49:00,49.3,48.5,28.88,NE,45,0.0,0.0,97,0.00,CLR,FEW,0.00,0.0,WeatherDisplay:10.37,2013-06-02 22:49:00,
2013-06-03 00:54:00,49.3,48.5,28.88,North,0,0.0,0.0,97,0.00,CLR,FEW,0.00,0.0,WeatherDisplay:10.37,2013-06-02 22:54:00,
2013-06-03 00:59:00,49.3,48.5,28.88,NW,320,3.5,4.0,97,0.00,CLR,FEW,0.00,0.0,WeatherDisplay:10.37,2013-06-02 22:59:00,
2013-06-03 01:04:00,49.3,48.5,28.88,North,10,3.5,3.5,97,0.00,CLR,FEW,0.00,0.0,WeatherDisplay:10.37,2013-06-02 23:04:00,
2013-06-03 01:09:00,49.3,48.5,28.91,NNE,15,1.1,1.5,97,0.00,CLR,FEW,0.00,0.0,WeatherDisplay:10.37,2013-06-02 23:09:00,
2013-06-03 01:14:00,49.3,48.5,28.91,NNE,15,1.1,1.1,97,0.00,CLR,FEW,0.00,0.0,WeatherDisplay:10.37,2013-06-02 23:14:00,
2013-06-03 01:19:00,49.3,48.5,28.91,NNE,15,1.1,1.1,97,0.00,CLR,FEW,0.00,0.0,WeatherDisplay:10.37,2013-06-02 23:19:00,
2013-06-03 01:24:00,49.3,48.5,28.88,NE,35,2.3,2.3,97,0.00,CLR,FEW,0.00,0.0,WeatherDisplay:10.37,2013-06-02 23:24:00,
2013-06-03 01:29:00,49.3,48.5,28.88,NE,50,0.0,0.0,97,0.00,CLR,FEW,0.00,0.0,WeatherDisplay:10.37,2013-06-02 23:29:00,
2013-06-03 01:34:00,49.3,48.5,28.88,NNE,30,0.0,0.2,97,0.00,CLR,FEW,0.00,0.0,WeatherDisplay:10.37,2013-06-02 23:34:00,
2013-06-03 01:39:00,49.3,48.5,28.88,North,355,0.0,0.6,97,0.00,CLR,FEW,0.00,0.0,WeatherDisplay:10.37,2013-06-02 23:39:00,
2013-06-03 01:44:00,49.3,48.5,28.88,North,355,0.0,0.6,97,0.00,CLR,FEW,0.00,0.0,WeatherDisplay:10.37,2013-06-02 23:44:00,
2013-06-03 01:49:00,49.3,48.5,28.88,NNE,30,1.1,1.5,97,0.00,CLR,FEW,0.00,0.0,WeatherDisplay:10.37,2013-06-02 23:49:00,
2013-06-03 01:54:00,49.3,48.5,28.91,NNE,20,1.1,1.1,97,0.00,CLR,FEW,0.00,0.0,WeatherDisplay:10.37,2013-06-02 23:54:00,
2013-06-03 01:59:00,49.3,48.5,28.91,NNW,340,2.3,2.3,97,0.00,CLR,FEW,0.00,0.0,WeatherDisplay:10.37,2013-06-02 23:59:00,
2013-06-03 02:04:00,49.3,48.5,28.91,NNE,25,3.5,3.5,97,0.00,CLR,FEW,0.00,0.0,WeatherDisplay:10.37,2013-06-03 00:04:00,
2013-06-03 02:09:00,49.3,48.5,28.91,North,0,1.1,1.5,97,0.00,CLR,FEW,0.00,0.0,WeatherDisplay:10.37,2013-06-03 00:09:00,
2013-06-03 02:14:00,49.3,48.5,28.91,North,355,1.1,1.3,97,0.00,CLR,FEW,0.00,0.0,WeatherDisplay:10.37,2013-06-03 00:14:00,
2013-06-03 02:19:00,49.3,48.5,28.91,North,355,1.1,1.3,97,0.00,CLR,FEW,0.00,0.0,WeatherDisplay:10.37,2013-06-03 00:19:00,
2013-06-03 02:24:00,49.3,48.5,28.91,NW,310,1.1,1.1,97,0.00,CLR,FEW,0.00,0.0,WeatherDisplay:10.37,2013-06-03 00:24:00,
2013-06-03 02:29:00,49.3,48.5,28.91,NNE,15,0.0,0.0,97,0.00,CLR,FEW,0.00,0.0,WeatherDisplay:10.37,2013-06-03 00:29:00,
2013-06-03 02:34:00,49.3,48.5,28.91,NNE,15,1.1,1.3,97,0.00,CLR,FEW,0.00,0.0,WeatherDisplay:10.37,2013-06-03 00:34:00,
2013-06-03 02:39:00,49.3,48.5,28.91,North,10,0.0,0.4,97,0.00,CLR,FEW,0.00,0.0,WeatherDisplay:10.37,2013-06-03 00:39:00,
2013-06-03 02:44:00,49.3,48.5,28.91,North,10,0.0,0.4,97,0.00,CLR,FEW,0.00,0.0,WeatherDisplay:10.37,2013-06-03 00:44:00,
2013-06-03 02:49:00,49.3,48.5,28.91,NNW,345,3.5,3.8,97,0.00,CLR,FEW,0.00,0.0,WeatherDisplay:10.37,2013-06-03 00:49:00,
2013-06-03 02:54:00,49.3,48.5,28.88,North,355,3.5,3.5,97,0.00,CLR,FEW,0.00,0.0,WeatherDisplay:10.37,2013-06-03 00:54:00,
2013-06-03 02:59:00,49.3,48.5,28.88,NE,40,1.1,1.5,97,0.00,CLR,FEW,0.00,0.0,WeatherDisplay:10.37,2013-06-03 00:59:00,
2013-06-03 03:04:00,49.3,48.5,28.88,NNE,25,1.1,1.1,97,0.00,CLR,FEW,0.00,0.0,WeatherDisplay:10.37,2013-06-03 01:04:00,
2013-06-03 03:09:00,49.3,48.5,28.91,NW,305,5.8,6.0,97,0.00,CLR,FEW,0.00,0.0,WeatherDisplay:10.37,2013-06-03 01:09:00,
2013-06-03 03:14:00,49.3,48.5,28.91,NNE,20,2.3,2.6,97,0.00,CLR,FEW,0.00,0.0,WeatherDisplay:10.37,2013-06-03 01:14:00,
2013-06-03 03:19:00,49.3,48.5,28.91,NNE,20,2.3,2.6,97,0.00,CLR,FEW,0.00,0.0,WeatherDisplay:10.37,2013-06-03 01:19:00,
2013-06-03 03:24:00,49.1,48.3,28.88,NW,325,2.3,2.3,97,0.00,CLR,FEW,0.00,0.0,WeatherDisplay:10.37,2013-06-03 01:24:00,
2013-06-03 03:29:00,49.1,48.3,28.88,North,355,1.1,1.5,97,0.00,CLR,FEW,0.00,0.0,WeatherDisplay:10.37,2013-06-03 01:29:00,
2013-06-03 03:34:00,49.1,48.3,28.88,North,10,2.3,2.3,97,0.00,CLR,FEW,0.00,0.0,WeatherDisplay:10.37,2013-06-03 01:34:00,
2013-06-03 03:39:00,49.1,48.3,28.91,North,0,5.8,6.0,97,0.00,CLR,FEW,0.00,0.0,WeatherDisplay:10.37,2013-06-03 01:39:00,
2013-06-03 03:44:00,49.1,48.3,28.91,North,0,5.8,6.0,97,0.00,CLR,FEW,0.00,0.0,WeatherDisplay:10.37,2013-06-03 01:44:00,
2013-06-03 03:49:00,48.9,48.1,28.91,NNW,335,1.1,1.1,97,0.00,CLR,FEW,0.00,0.0,WeatherDisplay:10.37,2013-06-03 01:49:00,
2013-06-03 03:54:00,48.9,48.1,28.91,NE,40,2.3,2.8,97,0.00,CLR,FEW,0.00,0.0,WeatherDisplay:10.37,2013-06-03 01:54:00,
2013-06-03 03:59:00,48.9,48.1,28.91,NW,325,1.1,1.7,97,0.00,CLR,FEW,0.00,0.0,WeatherDisplay:10.37,2013-06-03 01:59:00,
2013-06-03 04:04:00,48.9,48.1,28.91,North,350,1.1,1.3,97,0.00,CLR,FEW,0.00,0.0,WeatherDisplay:10.37,2013-06-03 02:04:00,
2013-06-03 04:09:00,48.9,48.1,28.91,NW,320,0.0,0.0,97,0.00,CLR,FEW,0.00,0.0,WeatherDisplay:10.37,2013-06-03 02:09:00,
2013-06-03 04:14:00,48.7,47.9,28.91,NNW,345,2.3,2.8,97,0.00,CLR,FEW,0.00,0.0,WeatherDisplay:10.37,2013-06-03 02:14:00,
2013-06-03 04:19:00,48.7,47.9,28.91,NNW,345,2.3,2.8,97,0.00,CLR,FEW,0.00,0.0,WeatherDisplay:10.37,2013-06-03 02:19:00,
2013-06-03 04:24:00,48.7,47.9,28.91,NNW,345,1.1,1.1,97,0.00,CLR,FEW,0.00,0.0,WeatherDisplay:10.37,2013-06-03 02:24:00,
2013-06-03 04:29:00,48.6,47.7,28.91,NNE,25,2.3,2.3,97,0.00,OVC,FEW,0.00,0.0,WeatherDisplay:10.37,2013-06-03 02:29:00,
2013-06-03 04:34:00,48.6,47.7,28.91,NW,310,3.5,3.8,97,0.00,OVC,FEW,0.00,0.0,WeatherDisplay:10.37,2013-06-03 02:34:00,
2013-06-03 04:39:00,48.4,47.6,28.91,NNW,335,0.0,0.4,97,0.00,OVC,FEW,0.00,0.0,WeatherDisplay:10.37,2013-06-03 02:39:00,
2013-06-03 04:44:00,48.4,47.6,28.91,NNW,335,0.0,0.4,97,0.00,OVC,FEW,0.00,0.0,WeatherDisplay:10.37,2013-06-03 02:44:00,
2013-06-03 04:49:00,48.4,47.6,28.91,North,350,1.1,1.5,97,0.00,OVC,FEW,0.00,0.0,WeatherDisplay:10.37,2013-06-03 02:49:00,
2013-06-03 04:54:00,48.4,47.6,28.91,North,350,1.1,1.7,97,0.00,OVC,FEW,0.00,0.0,WeatherDisplay:10.37,2013-06-03 02:54:00,
2013-06-03 04:59:00,48.4,47.6,28.91,NNW,340,2.3,2.6,97,0.00,OVC,FEW,0.00,0.0,WeatherDisplay:10.37,2013-06-03 02:59:00,
2013-06-03 05:04:00,48.2,47.4,28.91,North,0,3.5,3.5,97,0.00,OVC,FEW,0.00,0.0,WeatherDisplay:10.37,2013-06-03 03:04:00,
2013-06-03 05:09:00,48.0,47.2,28.91,NNW,345,3.5,3.5,97,0.00,OVC,FEW,0.00,0.0,WeatherDisplay:10.37,2013-06-03 03:09:00,
2013-06-03 05:14:00,48.0,47.2,28.91,North,350,0.0,0.0,97,0.01,RA,FEW,0.01,0.0,WeatherDisplay:10.37,2013-06-03 03:14:00,
2013-06-03 05:19:00,48.0,47.2,28.91,North,350,0.0,0.0,97,0.01,RA,FEW,0.01,0.0,WeatherDisplay:10.37,2013-06-03 03:19:00,
2013-06-03 05:24:00,48.0,47.2,28.91,North,355,2.3,2.3,97,0.01,OVC,FEW,0.01,0.0,WeatherDisplay:10.37,2013-06-03 03:24:00,
2013-06-03 05:29:00,48.0,47.2,28.91,NNE,30,1.1,1.1,97,0.02,RA,FEW,0.02,0.0,WeatherDisplay:10.37,2013-06-03 03:29:00,
2013-06-03 05:34:00,48.0,47.2,28.91,North,10,2.3,2.3,97,0.02,OVC,FEW,0.02,0.0,WeatherDisplay:10.37,2013-06-03 03:34:00,
2013-06-03 05:39:00,48.0,47.2,28.91,NNE,25,1.1,1.1,97,0.03,RA,FEW,0.03,0.0,WeatherDisplay:10.37,2013-06-03 03:39:00,
2013-06-03 05:44:00,48.0,47.2,28.91,NNE,25,1.1,1.1,97,0.03,RA,FEW,0.03,0.0,WeatherDisplay:10.37,2013-06-03 03:44:00,
2013-06-03 05:49:00,47.8,47.0,28.91,NW,320,2.3,2.8,97,0.03,OVC,FEW,0.03,0.0,WeatherDisplay:10.37,2013-06-03 03:49:00,
2013-06-03 05:54:00,47.8,47.0,28.91,NNE,25,2.3,2.6,97,0.05,RA,FEW,0.05,0.0,WeatherDisplay:10.37,2013-06-03 03:54:00,
2013-06-03 05:59:00,48.0,47.2,28.91,North,0,2.3,2.6,97,0.06,RA,FEW,0.06,0.0,WeatherDisplay:10.37,2013-06-03 03:59:00,
2013-06-03 06:01:00,48.0,47.2,28.91,North,0,2.3,2.6,97,0.06,RA,FEW,0.06,0.0,WeatherDisplay:10.37,2013-06-03 04:01:00,
2013-06-03 06:02:00,48.0,47.2,28.91,North,0,2.3,2.6,97,0.06,RA,FEW,0.06,0.0,WeatherDisplay:10.37,2013-06-03 04:02:00,
2013-06-03 06:07:00,47.8,47.0,28.91,North,10,6.9,6.9,97,0.08,RA,FEW,0.08,0.0,WeatherDisplay:10.37,2013-06-03 04:07:00,
2013-06-03 06:12:00,47.7,46.9,28.91,NNW,340,2.3,2.4,97,0.09,RA,FEW,0.09,0.0,WeatherDisplay:10.37,2013-06-03 04:12:00,
2013-06-03 06:17:00,47.7,46.9,28.91,NNW,340,2.3,2.4,97,0.08,OVC,FEW,0.09,0.0,WeatherDisplay:10.37,2013-06-03 04:17:00,
2013-06-03 06:22:00,47.7,46.9,28.91,NNE,25,4.6,4.6,97,0.08,OVC,FEW,0.09,0.0,WeatherDisplay:10.37,2013-06-03 04:22:00,
2013-06-03 06:27:00,47.7,46.9,28.91,NNE,25,4.6,4.6,97,0.08,OVC,FEW,0.09,0.0,WeatherDisplay:10.37,2013-06-03 04:27:00,
2013-06-03 06:32:00,47.7,46.9,28.91,NW,310,3.5,3.8,97,0.81,RA,FEW,0.83,0.0,WeatherDisplay:10.37,2013-06-03 04:32:00,
2013-06-03 06:37:00,47.7,46.9,28.91,NW,315,3.5,3.5,97,0.81,OVC,FEW,0.83,0.0,WeatherDisplay:10.37,2013-06-03 04:37:00,
2013-06-03 06:42:00,47.5,46.7,28.91,WNW,290,3.5,3.8,97,0.81,RA,FEW,0.85,0.0,WeatherDisplay:10.37,2013-06-03 04:42:00,
2013-06-03 06:47:00,47.5,46.7,28.91,NNW,345,4.6,5.1,97,0.81,OVC,FEW,0.85,0.0,WeatherDisplay:10.37,2013-06-03 04:47:00,
2013-06-03 06:52:00,47.5,46.7,28.91,NE,50,2.3,2.8,97,0.80,OVC,FEW,0.85,0.0,WeatherDisplay:10.37,2013-06-03 04:52:00,
2013-06-03 06:57:00,47.5,46.7,28.91,NE,50,2.3,2.8,97,0.80,OVC,FEW,0.85,0.0,WeatherDisplay:10.37,2013-06-03 04:57:00,
2013-06-03 07:02:00,47.3,46.5,28.91,North,0,2.8,2.8,97,0.78,OVC,FEW,0.86,0.0,WeatherDisplay:10.37,2013-06-03 05:02:00,
2013-06-03 07:07:00,47.3,46.5,28.91,North,0,2.3,2.8,97,0.78,OVC,FEW,0.86,0.0,WeatherDisplay:10.37,2013-06-03 05:07:00,
2013-06-03 07:12:00,47.1,46.0,28.91,North,5,4.6,4.6,96,0.78,RA,FEW,0.87,0.0,WeatherDisplay:10.37,2013-06-03 05:12:00,
2013-06-03 07:17:00,47.1,46.0,28.91,North,0,3.5,3.5,96,0.79,RA,FEW,0.88,0.0,WeatherDisplay:10.37,2013-06-03 05:17:00,
2013-06-03 07:22:00,47.1,46.0,28.91,NE,35,9.2,9.2,96,0.05,RA,FEW,0.14,0.0,WeatherDisplay:10.37,2013-06-03 05:22:00,
2013-06-03 07:27:00,47.1,46.0,28.91,North,10,3.5,3.5,96,0.06,RA,FEW,0.15,0.0,WeatherDisplay:10.37,2013-06-03 05:27:00,
2013-06-03 07:32:00,47.1,46.0,28.91,North,10,3.5,3.5,96,0.06,RA,FEW,0.15,0.0,WeatherDisplay:10.37,2013-06-03 05:32:00,
2013-06-03 07:37:00,47.1,46.0,28.91,NE,35,4.6,4.7,96,0.06,OVC,FEW,0.15,0.0,WeatherDisplay:10.37,2013-06-03 05:37:00,
2013-06-03 07:42:00,47.1,46.0,28.91,West,275,3.5,3.5,96,0.06,RA,FEW,0.16,0.0,WeatherDisplay:10.37,2013-06-03 05:42:00,
2013-06-03 07:47:00,47.1,46.0,28.91,NNE,30,2.3,2.4,96,0.07,RA,FEW,0.18,0.0,WeatherDisplay:10.37,2013-06-03 05:47:00,
2013-06-03 07:52:00,47.1,46.0,28.94,NNW,335,6.9,6.9,96,0.08,RA,FEW,0.19,0.0,WeatherDisplay:10.37,2013-06-03 05:52:00,
2013-06-03 07:57:00,47.1,46.0,28.94,NW,305,2.3,2.6,96,0.07,OVC,FEW,0.19,0.0,WeatherDisplay:10.37,2013-06-03 05:57:00,
2013-06-03 08:02:00,46.9,45.9,28.94,NNE,15,4.6,4.6,96,0.08,RA,FEW,0.20,0.0,WeatherDisplay:10.37,2013-06-03 06:02:00,
2013-06-03 08:07:00,46.9,45.9,28.94,NNE,15,4.6,4.6,96,0.08,RA,FEW,0.20,0.0,WeatherDisplay:10.37,2013-06-03 06:07:00,
2013-06-03 08:12:00,46.9,45.9,28.94,NE,40,1.1,1.1,96,0.08,RA,FEW,0.21,0.0,WeatherDisplay:10.37,2013-06-03 06:12:00,
2013-06-03 08:17:00,46.9,45.9,28.94,North,0,3.5,4.0,96,0.09,RA,FEW,0.23,0.0,WeatherDisplay:10.37,2013-06-03 06:17:00,
2013-06-03 08:22:00,46.9,45.9,28.94,NW,305,4.6,4.9,96,0.10,RA,FEW,0.25,0.0,WeatherDisplay:10.37,2013-06-03 06:22:00,
2013-06-03 08:27:00,47.1,46.0,28.94,NNW,340,2.3,2.8,96,0.10,RA,FEW,0.26,0.0,WeatherDisplay:10.37,2013-06-03 06:27:00,
2013-06-03 08:32:00,47.1,46.0,28.94,NNW,340,2.3,2.8,96,0.10,RA,FEW,0.26,0.0,WeatherDisplay:10.37,2013-06-03 06:32:00,
2013-06-03 08:37:00,46.9,45.9,28.94,WNW,300,1.1,1.3,96,0.10,OVC,FEW,0.26,0.0,WeatherDisplay:10.37,2013-06-03 06:37:00,
2013-06-03 08:42:00,46.9,45.9,28.91,NNW,335,5.8,5.8,96,0.12,RA,FEW,0.28,0.0,WeatherDisplay:10.37,2013-06-03 06:42:00,
2013-06-03 08:47:00,46.9,45.9,28.91,North,350,2.3,2.8,96,0.10,OVC,FEW,0.28,0.0,WeatherDisplay:10.37,2013-06-03 06:47:00,
2013-06-03 08:52:00,46.9,45.9,28.91,North,350,2.3,2.8,96,0.09,OVC,FEW,0.28,0.0,WeatherDisplay:10.37,2013-06-03 06:52:00,
2013-06-03 08:57:00,47.1,46.0,28.91,NE,35,4.6,4.9,96,0.12,RA,FEW,0.30,0.0,WeatherDisplay:10.37,2013-06-03 06:57:00,
2013-06-03 09:02:00,47.1,46.0,28.91,NE,45,4.6,4.9,96,0.12,RA,FEW,0.31,0.0,WeatherDisplay:10.37,2013-06-03 07:02:00,
2013-06-03 09:07:00,47.1,46.0,28.91,NE,45,4.6,4.9,96,0.12,RA,FEW,0.31,0.0,WeatherDisplay:10.37,2013-06-03 07:07:00,
2013-06-03 09:12:00,47.1,46.0,28.94,NNW,340,4.6,4.7,96,0.10,OVC,FEW,0.31,0.0,WeatherDisplay:10.37,2013-06-03 07:12:00,
2013-06-03 09:17:00,47.1,46.0,28.94,NNE,15,5.8,5.8,96,0.08,OVC,FEW,0.31,0.0,WeatherDisplay:10.37,2013-06-03 07:17:00,
2013-06-03 09:22:00,47.1,46.0,28.94,North,5,5.8,5.8,96,0.08,RA,FEW,0.33,0.0,WeatherDisplay:10.37,2013-06-03 07:22:00,
2013-06-03 09:27:00,47.3,46.2,28.94,NNW,335,3.5,3.8,96,0.07,OVC,FEW,0.33,0.0,WeatherDisplay:10.37,2013-06-03 07:27:00,
2013-06-03 09:32:00,47.3,46.2,28.94,NNW,335,3.5,3.8,96,0.07,OVC,FEW,0.33,0.0,WeatherDisplay:10.37,2013-06-03 07:32:00,
2013-06-03 09:37:00,47.1,46.0,28.94,NNW,340,6.9,7.3,96,0.07,OVC,FEW,0.33,0.0,WeatherDisplay:10.37,2013-06-03 07:37:00,
2013-06-03 09:42:00,47.5,46.4,28.94,NE,35,1.1,1.5,96,0.06,RA,FEW,0.34,0.0,WeatherDisplay:10.37,2013-06-03 07:42:00,
2013-06-03 09:47:00,47.5,46.4,28.94,WNW,300,4.6,4.7,96,0.07,RA,FEW,0.35,0.0,WeatherDisplay:10.37,2013-06-03 07:47:00,
2013-06-03 09:52:00,47.7,46.6,28.94,North,0,4.6,4.7,96,0.08,RA,FEW,0.36,0.0,WeatherDisplay:10.37,2013-06-03 07:52:00,
2013-06-03 09:57:00,47.7,46.6,28.94,NNW,345,3.5,3.5,96,0.07,RA,FEW,0.37,0.0,WeatherDisplay:10.37,2013-06-03 07:57:00,
2013-06-03 10:02:00,47.5,46.4,28.94,North,355,4.6,4.9,96,0.07,RA,FEW,0.38,0.0,WeatherDisplay:10.37,2013-06-03 08:02:00,
2013-06-03 10:07:00,47.5,46.4,28.94,North,355,4.6,4.9,96,0.07,RA,FEW,0.38,0.0,WeatherDisplay:10.37,2013-06-03 08:07:00,
2013-06-03 10:12:00,47.5,46.1,28.91,NNW,340,4.6,4.6,95,0.08,RA,FEW,0.40,0.0,WeatherDisplay:10.37,2013-06-03 08:12:00,
2013-06-03 10:17:00,47.5,46.4,28.91,North,350,4.6,4.6,96,0.09,RA,FEW,0.41,0.0,WeatherDisplay:10.37,2013-06-03 08:17:00,
2013-06-03 10:22:00,47.3,45.9,28.94,NNE,20,4.6,4.7,95,0.09,RA,FEW,0.42,0.0,WeatherDisplay:10.37,2013-06-03 08:22:00,
2013-06-03 10:27:00,47.3,45.9,28.94,North,0,6.9,7.3,95,0.10,RA,FEW,0.43,0.0,WeatherDisplay:10.37,2013-06-03 08:27:00,
2013-06-03 10:32:00,47.3,45.9,28.94,North,0,6.9,7.3,95,0.10,RA,FEW,0.43,0.0,WeatherDisplay:10.37,2013-06-03 08:32:00,
2013-06-03 10:37:00,47.5,46.1,28.94,NNE,25,6.9,6.9,95,0.12,RA,FEW,0.44,0.0,WeatherDisplay:10.37,2013-06-03 08:37:00,
2013-06-03 10:42:00,47.7,46.3,28.94,NNW,345,4.6,4.9,95,0.12,RA,FEW,0.45,0.0,WeatherDisplay:10.37,2013-06-03 08:42:00,
2013-06-03 10:47:00,47.3,45.9,28.94,NW,310,8.1,8.1,95,0.13,RA,FEW,0.48,0.0,WeatherDisplay:10.37,2013-06-03 08:47:00,
2013-06-03 10:52:00,47.8,46.5,28.94,North,0,4.6,4.6,95,0.12,OVC,FEW,0.48,0.0,WeatherDisplay:10.37,2013-06-03 08:52:00,
2013-06-03 10:57:00,47.7,46.3,28.94,North,5,2.3,2.6,95,0.12,RA,FEW,0.49,0.0,WeatherDisplay:10.37,2013-06-03 08:57:00,
2013-06-03 11:02:00,47.7,46.3,28.94,NNE,15,5.8,5.8,95,0.10,OVC,FEW,0.49,0.0,WeatherDisplay:10.37,2013-06-03 09:02:00,
2013-06-03 11:07:00,47.7,46.3,28.94,NNE,15,5.8,5.8,95,0.10,OVC,FEW,0.49,0.0,WeatherDisplay:10.37,2013-06-03 09:07:00,
2013-06-03 11:12:00,47.5,46.1,28.94,NNE,30,4.6,4.7,95,0.12,RA,FEW,0.51,0.0,WeatherDisplay:10.37,2013-06-03 09:12:00,
2013-06-03 11:17:00,47.7,46.3,28.94,NNE,20,3.5,3.5,95,0.10,OVC,FEW,0.51,0.0,WeatherDisplay:10.37,2013-06-03 09:17:00,
2013-06-03 11:22:00,47.5,46.1,28.94,NNE,25,5.8,5.8,95,0.12,RA,FEW,0.54,0.0,WeatherDisplay:10.37,2013-06-03 09:22:00,
2013-06-03 11:27:00,47.8,46.5,28.94,NNE,25,2.3,2.6,95,0.13,RA,FEW,0.56,0.0,WeatherDisplay:10.37,2013-06-03 09:27:00,
2013-06-03 11:32:00,47.8,46.5,28.94,NNE,25,2.3,2.6,95,0.13,RA,FEW,0.56,0.0,WeatherDisplay:10.37,2013-06-03 09:32:00,
2013-06-03 11:37:00,47.7,46.3,28.94,NNE,20,3.5,4.0,95,0.13,RA,FEW,0.57,0.0,WeatherDisplay:10.37,2013-06-03 09:37:00,
2013-06-03 11:42:00,47.3,46.2,28.94,North,5,5.8,6.2,96,0.14,RA,FEW,0.59,0.0,WeatherDisplay:10.37,2013-06-03 09:42:00,
2013-06-03 11:47:00,47.5,46.4,28.94,North,0,5.8,5.8,96,0.14,RA,FEW,0.62,0.0,WeatherDisplay:10.37,2013-06-03 09:47:00,
2013-06-03 11:52:00,47.7,46.6,28.94,NNW,335,3.5,3.5,96,0.15,RA,FEW,0.63,0.0,WeatherDisplay:10.37,2013-06-03 09:52:00,
2013-06-03 11:57:00,47.7,46.6,28.94,NNW,330,4.6,4.6,96,0.15,RA,FEW,0.64,0.0,WeatherDisplay:10.37,2013-06-03 09:57:00,
2013-06-03 12:02:00,47.7,46.6,28.94,NNE,20,3.5,3.5,96,0.16,RA,FEW,0.65,0.0,WeatherDisplay:10.37,2013-06-03 10:02:00,
2013-06-03 12:07:00,47.7,46.6,28.94,NNE,20,3.5,3.5,96,0.16,RA,FEW,0.65,0.0,WeatherDisplay:10.37,2013-06-03 10:07:00,
2013-06-03 12:12:00,47.7,46.6,28.94,North,350,4.6,4.7,96,0.16,RA,FEW,0.67,0.0,WeatherDisplay:10.37,2013-06-03 10:12:00,
2013-06-03 12:17:00,47.8,46.8,28.94,NW,320,3.5,3.5,96,0.17,RA,FEW,0.69,0.0,WeatherDisplay:10.37,2013-06-03 10:17:00,
2013-06-03 12:22:00,47.8,46.8,28.94,NNE,15,3.5,3.8,96,0.16,RA,FEW,0.70,0.0,WeatherDisplay:10.37,2013-06-03 10:22:00,
2013-06-03 12:27:00,47.8,46.8,28.94,NNE,15,3.5,3.8,96,0.14,OVC,FEW,0.70,0.0,WeatherDisplay:10.37,2013-06-03 10:27:00,
2013-06-03 12:32:00,47.8,46.8,28.94,NNE,15,3.5,3.8,96,0.14,OVC,FEW,0.70,0.0,WeatherDisplay:10.37,2013-06-03 10:32:00,
2013-06-03 12:37:00,47.7,46.6,28.94,NE,45,3.5,3.5,96,0.15,RA,FEW,0.72,0.0,WeatherDisplay:10.37,2013-06-03 10:37:00,
2013-06-03 12:42:00,47.7,46.6,28.94,NNE,30,5.8,5.8,96,0.14,RA,FEW,0.73,0.0,WeatherDisplay:10.37,2013-06-03 10:42:00,
2013-06-03 12:47:00,47.8,46.8,28.94,NNE,20,3.5,3.5,96,0.13,RA,FEW,0.74,0.0,WeatherDisplay:10.37,2013-06-03 10:47:00,
2013-06-03 12:52:00,47.8,46.8,28.94,North,0,2.3,2.3,96,0.12,OVC,FEW,0.74,0.0,WeatherDisplay:10.37,2013-06-03 10:52:00,
2013-06-03 12:57:00,47.8,46.8,28.94,NNE,20,4.6,4.6,96,0.10,OVC,FEW,0.74,0.0,WeatherDisplay:10.37,2013-06-03 10:57:00,
2013-06-03 13:02:00,47.8,46.8,28.94,NNW,335,5.8,5.8,96,0.10,RA,FEW,0.76,0.0,WeatherDisplay:10.37,2013-06-03 11:02:00,
2013-06-03 13:07:00,47.8,46.8,28.94,NNW,335,5.8,5.8,96,0.10,RA,FEW,0.76,0.0,WeatherDisplay:10.37,2013-06-03 11:07:00,
2013-06-03 13:12:00,48.0,46.9,28.94,NE,40,3.5,3.8,96,0.08,OVC,FEW,0.76,0.0,WeatherDisplay:10.37,2013-06-03 11:12:00,
2013-06-03 13:17:00,48.0,46.9,28.94,North,5,6.9,6.9,96,0.08,RA,FEW,0.77,0.0,WeatherDisplay:10.37,2013-06-03 11:17:00,
2013-06-03 13:22:00,48.0,46.9,28.94,NNE,25,3.5,3.5,96,0.07,OVC,FEW,0.77,0.0,WeatherDisplay:10.37,2013-06-03 11:22:00,
2013-06-03 13:27:00,48.0,46.9,28.94,NW,320,3.5,3.5,96,0.08,RA,FEW,0.78,0.0,WeatherDisplay:10.37,2013-06-03 11:27:00,
2013-06-03 13:32:00,48.0,46.9,28.94,NW,320,3.5,3.5,96,0.08,RA,FEW,0.78,0.0,WeatherDisplay:10.37,2013-06-03 11:32:00,
2013-06-03 13:37:00,48.0,46.9,28.94,North,10,3.5,3.5,96,0.07,RA,FEW,0.79,0.0,WeatherDisplay:10.37,2013-06-03 11:37:00,
2013-06-03 13:42:00,48.0,46.9,28.94,NE,40,5.8,6.0,96,0.08,RA,FEW,0.81,0.0,WeatherDisplay:10.37,2013-06-03 11:42:00,
2013-06-03 13:47:00,47.7,46.6,28.94,NE,50,6.9,6.9,96,0.09,RA,FEW,0.84,0.0,WeatherDisplay:10.37,2013-06-03 11:47:00,
2013-06-03 13:52:00,48.0,46.9,28.94,NW,315,4.6,4.7,96,0.14,RA,FEW,0.88,0.0,WeatherDisplay:10.37,2013-06-03 11:52:00,
2013-06-03 13:57:00,48.2,47.1,28.94,North,355,2.3,2.4,96,0.15,RA,FEW,0.90,0.0,WeatherDisplay:10.37,2013-06-03 11:57:00,
2013-06-03 14:02:00,47.7,46.6,28.94,NNE,15,8.1,8.1,96,0.15,RA,FEW,0.91,0.0,WeatherDisplay:10.37,2013-06-03 12:02:00,
2013-06-03 14:07:00,47.7,46.6,28.94,NNE,15,8.1,8.1,96,0.15,RA,FEW,0.91,0.0,WeatherDisplay:10.37,2013-06-03 12:07:00,
2013-06-03 14:12:00,48.0,46.9,28.94,NNW,335,4.6,4.6,96,0.15,OVC,FEW,0.91,0.0,WeatherDisplay:10.37,2013-06-03 12:12:00,
2013-06-03 14:17:00,48.0,46.9,28.94,North,350,3.5,4.0,96,0.15,RA,FEW,0.92,0.0,WeatherDisplay:10.37,2013-06-03 12:17:00,
2013-06-03 14:22:00,48.0,46.9,28.94,North,0,4.6,4.9,96,0.15,OVC,FEW,0.92,0.0,WeatherDisplay:10.37,2013-06-03 12:22:00,
2013-06-03 14:27:00,48.2,47.1,28.94,North,355,2.3,2.3,96,0.15,RA,FEW,0.93,0.0,WeatherDisplay:10.37,2013-06-03 12:27:00,
2013-06-03 14:32:00,48.2,47.1,28.94,North,355,2.3,2.3,96,0.15,RA,FEW,0.93,0.0,WeatherDisplay:10.37,2013-06-03 12:32:00,
2013-06-03 14:37:00,48.4,47.3,28.94,NNE,20,3.5,3.5,96,0.14,OVC,FEW,0.93,0.0,WeatherDisplay:10.37,2013-06-03 12:37:00,
2013-06-03 14:42:00,48.0,46.7,28.94,NE,35,8.1,8.3,95,0.12,OVC,FEW,0.93,0.0,WeatherDisplay:10.37,2013-06-03 12:42:00,
2013-06-03 14:47:00,48.4,47.0,28.94,NE,55,6.9,6.9,95,0.09,OVC,FEW,0.93,0.0,WeatherDisplay:10.37,2013-06-03 12:47:00,
2013-06-03 14:52:00,48.2,46.6,28.94,NE,40,9.2,9.2,94,0.05,OVC,FEW,0.93,0.0,WeatherDisplay:10.37,2013-06-03 12:52:00,
2013-06-03 14:57:00,48.6,46.6,28.94,East,95,8.1,8.1,93,0.03,OVC,FEW,0.93,0.0,WeatherDisplay:10.37,2013-06-03 12:57:00,
2013-06-03 15:02:00,48.4,46.4,28.94,NNE,25,2.3,2.3,93,0.02,OVC,FEW,0.93,0.0,WeatherDisplay:10.37,2013-06-03 13:02:00,
2013-06-03 15:07:00,48.4,46.4,28.94,NNW,345,5.8,5.8,93,0.02,OVC,FEW,0.93,0.0,WeatherDisplay:10.37,2013-06-03 13:07:00,
2013-06-03 15:12:00,48.4,46.4,28.94,NNW,345,5.8,5.8,93,0.02,OVC,FEW,0.93,0.0,WeatherDisplay:10.37,2013-06-03 13:12:00,
2013-06-03 15:17:00,48.2,46.3,28.94,North,350,8.1,8.1,93,0.01,OVC,FEW,0.93,0.0,WeatherDisplay:10.37,2013-06-03 13:17:00,
2013-06-03 15:22:00,48.4,46.4,28.94,North,355,5.8,5.8,93,0.01,OVC,FEW,0.93,0.0,WeatherDisplay:10.37,2013-06-03 13:22:00,
2013-06-03 15:27:00,48.4,46.4,28.94,NE,40,2.3,2.8,93,0.00,OVC,FEW,0.93,0.0,WeatherDisplay:10.37,2013-06-03 13:27:00,
2013-06-03 15:32:00,48.6,46.9,28.94,NNW,335,1.1,1.5,94,0.00,OVC,FEW,0.93,0.0,WeatherDisplay:10.37,2013-06-03 13:32:00,
2013-06-03 15:37:00,48.6,46.9,28.94,NNW,335,1.1,1.5,94,0.00,OVC,FEW,0.93,0.0,WeatherDisplay:10.37,2013-06-03 13:37:00,
2013-06-03 15:42:00,48.4,46.7,28.94,North,0,4.6,4.9,94,0.00,OVC,FEW,0.93,0.0,WeatherDisplay:10.37,2013-06-03 13:42:00,
2013-06-03 15:47:00,48.4,47.0,28.94,North,0,5.8,5.8,95,0.00,OVC,FEW,0.93,0.0,WeatherDisplay:10.37,2013-06-03 13:47:00,
2013-06-03 15:52:00,48.2,46.8,28.94,WNW,285,3.5,3.5,95,0.00,OVC,FEW,0.93,0.0,WeatherDisplay:10.37,2013-06-03 13:52:00,
2013-06-03 15:57:00,48.4,47.0,28.94,NNE,25,3.5,3.5,95,0.00,OVC,FEW,0.93,0.0,WeatherDisplay:10.37,2013-06-03 13:57:00,
2013-06-03 16:03:00,48.2,46.8,28.94,NW,320,5.8,5.8,95,0.00,OVC,FEW,0.93,0.0,WeatherDisplay:10.37,2013-06-03 14:03:00,
2013-06-03 16:08:00,48.0,46.7,28.94,NE,35,3.5,3.8,95,0.00,OVC,FEW,0.93,0.0,WeatherDisplay:10.37,2013-06-03 14:08:00,
2013-06-03 16:13:00,48.0,46.7,28.94,NE,35,3.5,3.8,95,0.00,OVC,FEW,0.93,0.0,WeatherDisplay:10.37,2013-06-03 14:13:00,
2013-06-03 16:18:00,48.0,46.7,28.94,North,0,5.8,6.0,95,0.00,OVC,FEW,0.93,0.0,WeatherDisplay:10.37,2013-06-03 14:18:00,
2013-06-03 16:23:00,48.0,46.7,28.97,NE,35,4.6,4.7,95,0.00,OVC,FEW,0.93,0.0,WeatherDisplay:10.37,2013-06-03 14:23:00,
2013-06-03 16:28:00,48.0,46.7,28.97,WNW,285,3.5,3.5,95,0.00,OVC,FEW,0.93,0.0,WeatherDisplay:10.37,2013-06-03 14:28:00,
2013-06-03 16:33:00,48.0,46.7,28.97,WNW,290,3.5,3.8,95,0.00,OVC,FEW,0.93,0.0,WeatherDisplay:10.37,2013-06-03 14:33:00,
2013-06-03 16:38:00,48.0,46.7,28.97,WNW,290,3.5,3.8,95,0.00,OVC,FEW,0.93,0.0,WeatherDisplay:10.37,2013-06-03 14:38:00,
2013-06-03 16:43:00,48.0,46.7,28.97,NW,310,2.3,2.6,95,0.00,OVC,FEW,0.93,0.0,WeatherDisplay:10.37,2013-06-03 14:43:00,
2013-06-03 16:48:00,48.0,46.7,28.97,West,270,3.5,3.8,95,0.00,OVC,FEW,0.93,0.0,WeatherDisplay:10.37,2013-06-03 14:48:00,
2013-06-03 16:53:00,48.0,46.7,28.94,NW,325,5.8,6.0,95,0.00,OVC,FEW,0.93,0.0,WeatherDisplay:10.37,2013-06-03 14:53:00,
2013-06-03 16:58:00,48.0,46.7,28.94,North,0,3.5,3.5,95,0.00,OVC,FEW,0.93,0.0,WeatherDisplay:10.37,2013-06-03 14:58:00,
2013-06-03 17:03:00,48.2,46.8,28.94,North,5,4.6,4.7,95,0.00,OVC,FEW,0.93,0.0,WeatherDisplay:10.37,2013-06-03 15:03:00,
2013-06-03 17:08:00,48.2,46.8,28.94,North,5,4.6,4.7,95,0.00,OVC,FEW,0.93,0.0,WeatherDisplay:10.37,2013-06-03 15:08:00,
2013-06-03 17:13:00,48.2,46.8,28.94,North,5,4.6,4.7,95,0.00,OVC,FEW,0.93,0.0,WeatherDisplay:10.37,2013-06-03 15:13:00,
2013-06-03 17:18:00,48.0,46.7,28.97,ENE,75,6.9,6.9,95,0.00,OVC,FEW,0.93,0.0,WeatherDisplay:10.37,2013-06-03 15:18:00,
2013-06-03 17:23:00,48.0,46.7,28.97,ENE,75,6.9,6.9,95,0.00,OVC,FEW,0.93,0.0,WeatherDisplay:10.37,2013-06-03 15:23:00,
2013-06-03 17:28:00,47.8,46.5,28.94,NW,325,3.5,4.0,95,0.00,OVC,FEW,0.93,0.0,WeatherDisplay:10.37,2013-06-03 15:28:00,
2013-06-03 17:33:00,47.7,46.3,28.94,NNW,335,5.8,5.8,95,0.00,OVC,FEW,0.93,0.0,WeatherDisplay:10.37,2013-06-03 15:33:00,
2013-06-03 17:38:00,47.7,46.3,28.94,NNW,335,5.8,5.8,95,0.00,OVC,FEW,0.93,0.0,WeatherDisplay:10.37,2013-06-03 15:38:00,
2013-06-03 17:43:00,47.7,46.3,28.97,North,0,4.6,4.6,95,0.00,OVC,FEW,0.93,0.0,WeatherDisplay:10.37,2013-06-03 15:43:00,
2013-06-03 17:48:00,47.8,46.5,28.97,NNE,20,2.3,2.6,95,0.00,OVC,FEW,0.93,0.0,WeatherDisplay:10.37,2013-06-03 15:48:00,
2013-06-03 17:53:00,47.8,46.5,28.94,NNW,345,5.8,5.8,95,0.00,OVC,FEW,0.93,0.0,WeatherDisplay:10.37,2013-06-03 15:53:00,
2013-06-03 17:58:00,47.7,46.3,28.94,North,5,5.8,5.8,95,0.00,OVC,FEW,0.93,0.0,WeatherDisplay:10.37,2013-06-03 15:58:00,
2013-06-03 18:03:00,47.7,46.3,28.94,NNW,340,4.6,4.7,95,0.00,OVC,FEW,0.93,0.0,WeatherDisplay:10.37,2013-06-03 16:03:00,
2013-06-03 18:08:00,47.7,46.3,28.97,NW,305,4.6,4.6,95,0.00,OVC,FEW,0.93,0.0,WeatherDisplay:10.37,2013-06-03 16:08:00,
2013-06-03 18:13:00,47.7,46.3,28.97,NW,305,4.6,4.6,95,0.00,OVC,FEW,0.93,0.0,WeatherDisplay:10.37,2013-06-03 16:13:00,
2013-06-03 18:18:00,47.7,46.3,28.97,NNE,20,6.9,6.9,95,0.00,OVC,FEW,0.93,0.0,WeatherDisplay:10.37,2013-06-03 16:18:00,
2013-06-03 18:23:00,47.7,46.3,28.94,NNE,30,4.6,4.6,95,0.00,OVC,FEW,0.93,0.0,WeatherDisplay:10.37,2013-06-03 16:23:00,
2013-06-03 18:28:00,47.5,46.1,28.94,North,5,5.8,5.8,95,0.00,OVC,FEW,0.93,0.0,WeatherDisplay:10.37,2013-06-03 16:28:00,
2013-06-03 18:33:00,47.5,46.1,28.94,North,0,3.5,3.5,95,0.01,RA,FEW,0.94,0.0,WeatherDisplay:10.37,2013-06-03 16:33:00,
2013-06-03 18:38:00,47.5,46.1,28.94,North,0,3.5,3.5,95,0.01,RA,FEW,0.94,0.0,WeatherDisplay:10.37,2013-06-03 16:38:00,
2013-06-03 18:43:00,47.5,46.1,28.94,NNE,25,4.6,4.9,95,0.01,OVC,FEW,0.94,0.0,WeatherDisplay:10.37,2013-06-03 16:43:00,
2013-06-03 18:48:00,47.7,46.3,28.94,ENE,60,3.5,4.0,95,0.01,OVC,FEW,0.94,0.0,WeatherDisplay:10.37,2013-06-03 16:48:00,
2013-06-03 18:53:00,47.5,46.1,28.94,NNW,345,8.1,8.1,95,0.01,OVC,FEW,0.94,0.0,WeatherDisplay:10.37,2013-06-03 16:53:00,
2013-06-03 18:58:00,47.5,46.1,28.94,WNW,300,4.6,4.6,95,0.01,OVC,FEW,0.94,0.0,WeatherDisplay:10.37,2013-06-03 16:58:00,
2013-06-03 19:03:00,47.7,46.3,28.94,North,0,3.5,3.8,95,0.01,OVC,FEW,0.94,0.0,WeatherDisplay:10.37,2013-06-03 17:03:00,
2013-06-03 19:08:00,47.7,46.3,28.94,NNE,20,2.3,2.6,95,0.01,OVC,FEW,0.94,0.0,WeatherDisplay:10.37,2013-06-03 17:08:00,
2013-06-03 19:13:00,47.7,46.3,28.94,NNE,20,2.3,2.6,95,0.01,OVC,FEW,0.94,0.0,WeatherDisplay:10.37,2013-06-03 17:13:00,
2013-06-03 19:18:00,47.7,46.3,28.94,North,355,6.9,6.9,95,0.01,OVC,FEW,0.94,0.0,WeatherDisplay:10.37,2013-06-03 17:18:00,
2013-06-03 19:23:00,47.7,46.3,28.94,NNE,20,3.5,3.5,95,0.01,OVC,FEW,0.94,0.0,WeatherDisplay:10.37,2013-06-03 17:23:00,
2013-06-03 19:28:00,47.8,46.5,28.94,WSW,250,4.6,4.6,95,0.01,OVC,FEW,0.94,0.0,WeatherDisplay:10.37,2013-06-03 17:28:00,
2013-06-03 19:33:00,48.0,46.7,28.94,NNE,15,0.0,0.4,95,0.00,OVC,FEW,0.94,0.0,WeatherDisplay:10.37,2013-06-03 17:33:00,
2013-06-03 19:38:00,48.0,46.7,28.94,NNE,15,0.0,0.4,95,0.00,OVC,FEW,0.94,0.0,WeatherDisplay:10.37,2013-06-03 17:38:00,
2013-06-03 19:43:00,47.8,46.5,28.94,NNE,30,1.1,1.5,95,0.00,OVC,FEW,0.94,0.0,WeatherDisplay:10.37,2013-06-03 17:43:00,
2013-06-03 19:48:00,47.8,46.5,28.94,NNE,20,4.6,4.6,95,0.00,OVC,FEW,0.94,0.0,WeatherDisplay:10.37,2013-06-03 17:48:00,
2013-06-03 19:53:00,47.8,46.5,28.94,NNE,15,4.6,4.6,95,0.00,OVC,FEW,0.94,0.0,WeatherDisplay:10.37,2013-06-03 17:53:00,
2013-06-03 19:58:00,48.0,46.7,28.94,NNE,15,2.3,2.4,95,0.00,OVC,FEW,0.94,0.0,WeatherDisplay:10.37,2013-06-03 17:58:00,
2013-06-03 20:03:00,48.0,46.7,28.94,North,0,2.3,2.4,95,0.00,OVC,FEW,0.94,0.0,WeatherDisplay:10.37,2013-06-03 18:03:00,
2013-06-03 20:08:00,48.0,46.7,28.94,NNW,345,2.3,2.6,95,0.00,OVC,FEW,0.94,0.0,WeatherDisplay:10.37,2013-06-03 18:08:00,
2013-06-03 20:13:00,48.0,46.7,28.94,NNW,345,2.3,2.6,95,0.00,OVC,FEW,0.94,0.0,WeatherDisplay:10.37,2013-06-03 18:13:00,
2013-06-03 20:18:00,48.0,46.7,28.94,NNE,25,1.1,1.7,95,0.00,OVC,FEW,0.94,0.0,WeatherDisplay:10.37,2013-06-03 18:18:00,
2013-06-03 20:23:00,48.0,46.7,28.97,North,355,2.3,2.3,95,0.00,OVC,FEW,0.94,0.0,WeatherDisplay:10.37,2013-06-03 18:23:00,
2013-06-03 20:28:00,48.0,46.9,28.97,NW,315,2.3,2.4,96,0.00,OVC,FEW,0.94,0.0,WeatherDisplay:10.37,2013-06-03 18:28:00,
2013-06-03 20:33:00,48.2,47.1,28.97,NNE,20,4.6,4.6,96,0.00,OVC,FEW,0.94,0.0,WeatherDisplay:10.37,2013-06-03 18:33:00,
2013-06-03 20:38:00,48.0,46.9,28.94,NNE,30,1.5,1.5,96,0.00,OVC,FEW,0.94,0.0,WeatherDisplay:10.37,2013-06-03 18:38:00,
2013-06-03 20:43:00,48.0,46.9,28.94,NNE,30,1.1,1.5,96,0.00,OVC,FEW,0.94,0.0,WeatherDisplay:10.37,2013-06-03 18:43:00,
2013-06-03 20:48:00,48.0,46.9,28.94,North,350,4.6,4.9,96,0.00,OVC,FEW,0.94,0.0,WeatherDisplay:10.37,2013-06-03 18:48:00,
2013-06-03 20:53:00,48.2,47.1,28.97,NNW,340,3.5,3.5,96,0.00,OVC,FEW,0.94,0.0,WeatherDisplay:10.37,2013-06-03 18:53:00,
2013-06-03 20:58:00,48.2,47.1,28.97,North,10,3.5,3.5,96,0.00,OVC,FEW,0.94,0.0,WeatherDisplay:10.37,2013-06-03 18:58:00,
2013-06-03 21:03:00,48.0,46.9,28.97,NNW,330,2.3,2.3,96,0.00,OVC,FEW,0.94,0.0,WeatherDisplay:10.37,2013-06-03 19:03:00,
2013-06-03 21:08:00,48.2,47.1,28.97,NE,35,2.3,2.6,96,0.00,OVC,FEW,0.94,0.0,WeatherDisplay:10.37,2013-06-03 19:08:00,
2013-06-03 21:13:00,48.0,46.9,28.97,NE,40,1.1,1.1,96,0.00,OVC,FEW,0.94,0.0,WeatherDisplay:10.37,2013-06-03 19:13:00,
2013-06-03 21:18:00,48.0,46.9,28.97,NE,40,1.1,1.1,96,0.00,OVC,FEW,0.94,0.0,WeatherDisplay:10.37,2013-06-03 19:18:00,
2013-06-03 21:23:00,48.2,47.1,28.97,NE,50,2.3,2.4,96,0.00,OVC,FEW,0.94,0.0,WeatherDisplay:10.37,2013-06-03 19:23:00,
2013-06-03 21:28:00,48.2,47.1,28.97,NE,40,1.1,1.5,96,0.00,OVC,FEW,0.94,0.0,WeatherDisplay:10.37,2013-06-03 19:28:00,
2013-06-03 21:33:00,48.2,47.1,28.97,North,10,1.1,1.1,96,0.00,OVC,FEW,0.94,0.0,WeatherDisplay:10.37,2013-06-03 19:33:00,
2013-06-03 21:38:00,48.2,47.1,28.97,North,10,1.1,1.1,96,0.00,CLR,FEW,0.94,0.0,WeatherDisplay:10.37,2013-06-03 19:38:00,
2013-06-03 21:43:00,48.2,47.1,28.97,North,10,1.1,1.1,96,0.00,CLR,FEW,0.94,0.0,WeatherDisplay:10.37,2013-06-03 19:43:00,
2013-06-03 21:48:00,48.2,47.1,28.97,NNE,15,2.3,2.6,96,0.00,CLR,FEW,0.94,0.0,WeatherDisplay:10.37,2013-06-03 19:48:00,
2013-06-03 21:53:00,48.2,47.4,28.97,NE,35,2.3,2.3,97,0.00,CLR,FEW,0.94,0.0,WeatherDisplay:10.37,2013-06-03 19:53:00,
2013-06-03 21:58:00,48.2,47.4,28.97,NE,35,2.3,2.3,97,0.00,CLR,FEW,0.94,0.0,WeatherDisplay:10.37,2013-06-03 19:58:00,
2013-06-03 22:03:00,48.4,47.3,28.97,NE,35,2.3,2.3,96,0.00,CLR,FEW,0.94,0.0,WeatherDisplay:10.37,2013-06-03 20:03:00,
2013-06-03 22:08:00,48.4,47.6,28.97,NNE,30,1.1,1.7,97,0.01,RA,FEW,0.95,0.0,WeatherDisplay:10.37,2013-06-03 20:08:00,
2013-06-03 22:13:00,48.4,47.6,28.97,NE,40,1.1,1.5,97,0.01,CLR,FEW,0.95,0.0,WeatherDisplay:10.37,2013-06-03 20:13:00,
2013-06-03 22:18:00,48.4,47.6,28.97,NE,40,1.1,1.5,97,0.01,CLR,FEW,0.95,0.0,WeatherDisplay:10.37,2013-06-03 20:18:00,
2013-06-03 22:23:00,48.4,47.6,28.97,NNE,30,2.3,2.4,97,0.01,CLR,FEW,0.95,0.0,WeatherDisplay:10.37,2013-06-03 20:23:00,
2013-06-03 22:28:00,48.4,47.6,28.97,NE,45,2.3,2.3,97,0.01,CLR,FEW,0.95,0.0,WeatherDisplay:10.37,2013-06-03 20:28:00,
2013-06-03 22:33:00,48.4,47.6,28.97,NE,35,0.0,0.0,97,0.01,CLR,FEW,0.95,0.0,WeatherDisplay:10.37,2013-06-03 20:33:00,
2013-06-03 22:38:00,48.4,47.6,28.97,NE,35,0.0,0.0,97,0.01,CLR,FEW,0.95,0.0,WeatherDisplay:10.37,2013-06-03 20:38:00,
2013-06-03 22:43:00,48.4,47.6,28.97,NE,35,0.0,0.0,97,0.01,CLR,FEW,0.95,0.0,WeatherDisplay:10.37,2013-06-03 20:43:00,
2013-06-03 22:48:00,48.4,47.6,28.97,NNE,30,0.0,0.6,97,0.01,CLR,FEW,0.95,0.0,WeatherDisplay:10.37,2013-06-03 20:48:00,
2013-06-03 22:53:00,48.6,47.7,28.97,NNW,335,1.1,1.5,97,0.01,CLR,FEW,0.95,0.0,WeatherDisplay:10.37,2013-06-03 20:53:00,
2013-06-03 22:58:00,48.4,47.6,28.97,NE,35,1.1,1.5,97,0.01,CLR,FEW,0.95,0.0,WeatherDisplay:10.37,2013-06-03 20:58:00,
2013-06-03 23:03:00,48.6,47.7,28.97,NNW,345,3.5,3.8,97,0.01,CLR,FEW,0.95,0.0,WeatherDisplay:10.37,2013-06-03 21:03:00,
2013-06-03 23:08:00,48.4,47.6,28.94,NNE,25,1.1,1.1,97,0.00,CLR,FEW,0.95,0.0,WeatherDisplay:10.37,2013-06-03 21:08:00,
2013-06-03 23:13:00,48.4,47.6,28.94,North,5,2.3,2.4,97,0.00,CLR,FEW,0.95,0.0,WeatherDisplay:10.37,2013-06-03 21:13:00,
2013-06-03 23:18:00,48.4,47.6,28.94,North,5,2.3,2.4,97,0.00,CLR,FEW,0.95,0.0,WeatherDisplay:10.37,2013-06-03 21:18:00,
2013-06-03 23:23:00,48.4,47.6,28.94,NNW,345,2.3,2.8,97,0.00,CLR,FEW,0.95,0.0,WeatherDisplay:10.37,2013-06-03 21:23:00,
2013-06-03 23:28:00,48.6,47.7,28.94,NE,35,1.1,1.3,97,0.00,CLR,FEW,0.95,0.0,WeatherDisplay:10.37,2013-06-03 21:28:00,
2013-06-03 23:33:00,48.6,47.7,28.94,NNE,30,1.1,1.5,97,0.00,CLR,FEW,0.95,0.0,WeatherDisplay:10.37,2013-06-03 21:33:00,
2013-06-03 23:38:00,48.4,47.6,28.94,North,350,3.5,3.5,97,0.00,CLR,FEW,0.95,0.0,WeatherDisplay:10.37,2013-06-03 21:38:00,
2013-06-03 23:43:00,48.4,47.6,28.94,North,350,3.5,3.5,97,0.00,CLR,FEW,0.95,0.0,WeatherDisplay:10.37,2013-06-03 21:43:00,
2013-06-03 23:48:00,48.6,47.7,28.94,NNE,25,2.3,2.3,97,0.00,CLR,FEW,0.95,0.0,WeatherDisplay:10.37,2013-06-03 21:48:00,
2013-06-03 23:53:00,48.6,47.7,28.94,North,5,3.5,3.5,97,0.00,CLR,FEW,0.95,0.0,WeatherDisplay:10.37,2013-06-03 21:53:00,
2013-06-03 23:58:00,48.7,47.9,28.94,North,350,3.5,3.5,97,0.00,CLR,FEW,0.95,0.0,WeatherDisplay:10.37,2013-06-03 21:58:00,